Time;durP1;ratioP1;P1;durP2;ratioP2;P2;SDS_P1;SDS_P2;PMS_P1;PMS_P2;Temp;Humidity;BMP_temperature;BMP_pressure;BME280_temperature;BME280_humidity;BME280_pressure;Samples;Min_cycle;Max_cycle;Signal;HPM_P1;HPM_P2
2022/08/22 03:37:55;;;;;;;;;;;;;;;;;;;;;
2022/08/22 03:40:40;;;;;;;;;;;;;;;10.81;100.00;99417.31;6179058;23;19991;-90
2022/08/22 03:43:07;;;;;;;;;;;;;;;10.89;100.00;99399.22;6182129;23;19920;-84
2022/08/22 03:45:32;;;;;;;;;;;;;;;10.76;100.00;99406.09;6244667;22;19958;-90
2022/08/22 03:47:57;;;;;;;;;;;;;;;10.96;100.00;99400.66;6274483;22;19915;-90
2022/08/22 03:50:26;;;;;;;;;;;;;;;10.89;100.00;99400.09;6275771;22;19907;-88
2022/08/22 03:55:50;;;;;;;;;;;;;;;10.95;100.00;99408.69;6275713;22;19918;-91
2022/08/22 03:58:24;;;;;;;;;;;;;;;10.90;100.00;99404.47;6248988;22;19911;-88
2022/08/22 04:01:06;;;;;;;;;;;;;;;11.07;100.00;99410.69;6275663;22;19907;-85
2022/08/22 04:03:52;;;;;;;;;;;;;;;10.93;100.00;99416.72;6272741;22;19937;-86
2022/08/22 04:06:21;;;;;;;;;;;;;;;10.98;100.00;99408.53;6275505;22;20372;-87
2022/08/22 04:08:51;;;;;;;;;;;;;;;10.99;100.00;99408.47;6275647;22;19918;-86
2022/08/22 04:12:05;;;;;;;;;;;;;;;10.89;100.00;99410.69;6248869;22;19915;-87
2022/08/22 04:14:57;;;;;;;;;;;;;;;11.15;100.00;99408.50;6247845;22;19915;-86
2022/08/22 04:17:37;;;;;;;;;;;;;;;11.05;100.00;99407.28;6269388;22;19915;-86
2022/08/22 04:20:22;;;;;;;;;;;;;;;10.98;100.00;99416.50;6275523;22;20000;-88
2022/08/22 04:23:13;;;;;;;;;;;;;;;11.09;100.00;99415.00;6248615;22;19915;-87
2022/08/22 04:25:41;;;;;;;;;;;;;;;10.98;100.00;99417.34;6275692;22;20385;-88
2022/08/22 04:28:12;;;;;;;;;;;;;;;11.12;100.00;99418.41;6248585;22;20235;-87
2022/08/22 04:31:01;;;;;;;;;;;;;;;11.00;100.00;99422.56;6275845;22;20320;-86
2022/08/22 04:33:38;;;;;;;;;;;;;;;10.93;100.00;99424.66;6237958;22;19919;-89
2022/08/22 04:36:19;;;;;;;;;;;;;;;11.15;100.00;99413.81;6275246;22;19919;-88
2022/08/22 04:38:51;;;;;;;;;;;;;;;10.97;100.00;99414.75;6275398;22;20006;-86
2022/08/22 04:41:29;;;;;;;;;;;;;;;11.13;100.00;99421.00;6275552;22;19919;-88
2022/08/22 04:44:04;;;;;;;;;;;;;;;11.07;100.00;99416.88;6273091;22;19911;-87
2022/08/22 07:44:37;;;;;;;;;;;;;;;;;;;;;
2022/08/22 07:50:18;;;;;;;;;;;;;;;10.78;100.00;99473.97;6088452;23;19921;-86
2022/08/22 07:53:14;;;;;;;;;;;;;;;;;;;;;
2022/08/22 07:58:44;;;;;;;;;;;;;;;;;;;;;
2022/08/22 08:01:44;;;;;;;;;;;;;;;;;;;;;
2022/08/22 08:04:15;;;;;;;;;;;;;;;;;;;;;
2022/08/22 08:07:20;;;;;;;;;;;;;;;;;;;;;
2022/08/22 08:10:04;;;;;;;;;;;;;;;11.04;100.00;99480.66;6146069;23;19996;-86
2022/08/22 08:13:02;;;;;;;;;;;;;;;;;;;;;
2022/08/22 08:15:43;;;;;;;;;;;;;;;11.22;100.00;99493.94;6117520;23;19995;-86
2022/08/22 08:18:22;;;;;;;;;;;;;;;;;;;;;
2022/08/22 08:30:15;;;;;;;;;;;;;;;11.25;100.00;99496.44;6208387;23;20298;-87
2022/08/22 08:33:10;;;;;;;;;;;;;;;;;;;;;
2022/08/22 08:35:49;;;;;;;;;;;;;;;11.17;100.00;99503.88;6243323;23;19982;-87
2022/08/22 08:38:28;;;;;;;;;;;;;;;11.26;100.00;99503.44;6217317;23;19912;-87
2022/08/22 08:40:59;;;;;;;;;;;;;;;11.18;100.00;99511.78;6243868;23;19912;-87
2022/08/22 08:46:57;;;;;;;;;;;;;;;11.23;100.00;99516.84;6228208;23;19911;-86
2022/08/22 08:49:50;;;;;;;;;;;;;;;11.26;100.00;99504.31;6242753;23;19916;-87
2022/08/22 08:52:35;;;;;;;;;;;;;;;11.29;100.00;99510.41;6243269;23;19916;-87
2022/08/22 08:55:20;;;;;;;;;;;;;;;11.21;100.00;99502.81;6242520;23;19912;-87
2022/08/22 08:58:02;;;;;;;;;;;;;;;11.52;100.00;99501.25;6243044;23;19916;-86
2022/08/22 09:00:40;;;;;;;;;;;;;;;11.38;100.00;99510.78;6217438;23;19965;-87
2022/08/22 09:03:20;;;;;;;;;;;;;;;11.51;100.00;99497.75;6246555;23;20331;-88
2022/08/22 09:06:02;;;;;;;;;;;;;;;11.48;100.00;99494.41;6244928;23;19915;-86
2022/08/22 09:08:30;;;;;;;;;;;;;;;11.53;100.00;99495.88;6246546;23;20225;-88
2022/08/22 09:11:16;;;;;;;;;;;;;;;11.51;100.00;99484.47;6218271;23;19912;-86
2022/08/22 09:13:53;;;;;;;;;;;;;;;11.37;100.00;99479.88;6219710;23;20358;-87
2022/08/22 09:16:20;;;;;;;;;;;;;;;11.57;100.00;99480.69;6246400;23;19922;-86
2022/08/22 09:18:58;;;;;;;;;;;;;;;11.44;100.00;99485.75;6246655;23;19927;-87
2022/08/22 09:21:41;;;;;;;;;;;;;;;11.60;100.00;99484.00;6219648;23;19957;-87
2022/08/22 09:24:20;;;;;;;;;;;;;;;11.50;100.00;99490.72;6219417;23;19912;-89
2022/08/22 09:27:05;;;;;;;;;;;;;;;11.64;100.00;99487.38;6244575;23;19995;-87
2022/08/22 09:29:33;;;;;;;;;;;;;;;11.46;100.00;99481.22;6246499;23;19922;-88
2022/08/22 09:32:20;;;;;;;;;;;;;;;11.64;100.00;99474.09;6219351;23;19923;-87
2022/08/22 09:35:03;;;;;;;;;;;;;;;11.54;100.00;99472.88;6246061;23;19915;-88
2022/08/22 09:37:49;;;;;;;;;;;;;;;11.57;100.00;99478.03;6246346;23;19922;-89
2022/08/22 09:40:23;;;;;;;;;;;;;;;11.56;100.00;99468.34;6246237;23;19916;-88
2022/08/22 09:43:29;;;;;;;;;;;;;;;11.45;100.00;99461.81;6217782;23;19919;-87
2022/08/22 09:46:11;;;;;;;;;;;;;;;11.61;100.00;99458.31;6128564;23;20310;-87
2022/08/22 09:48:59;;;;;;;;;;;;;;;11.55;100.00;99459.53;6152131;23;19945;-87
2022/08/22 09:51:28;;;;;;;;;;;;;;;11.46;100.00;99454.69;6203123;23;19907;-87
2022/08/22 09:53:53;;;;;;;;;;;;;;;11.60;100.00;99448.66;6246302;23;19990;-87
2022/08/22 09:56:27;;;;;;;;;;;;;;;11.47;100.00;99447.56;6244540;23;19946;-88
2022/08/22 09:59:30;;;;;;;;;;;;;;;11.61;100.00;99443.25;6245373;23;19916;-87
2022/08/22 10:02:35;;;;;;;;;;;;;;;11.51;100.00;99441.19;6200256;23;19908;-87
2022/08/22 10:05:19;;;;;;;;;;;;;;;11.59;100.00;99444.28;6174175;23;19912;-87
2022/08/22 10:08:06;;;;;;;;;;;;;;;11.57;100.00;99446.19;6245667;23;19958;-87
2022/08/22 10:10:38;;;;;;;;;;;;;;;11.49;100.00;99445.69;6217971;23;19920;-86
2022/08/22 10:13:08;;;;;;;;;;;;;;;11.62;100.00;99438.81;6245129;23;19918;-86
2022/08/22 10:16:05;;;;;;;;;;;;;;;11.50;100.00;99436.81;6245989;23;19934;-89
2022/08/22 10:19:19;;;;;;;;;;;;;;;;;;;;;
2022/08/22 10:21:34;;;;;;;;;;;;;;;11.59;100.00;99428.38;6235648;23;19977;-88
2022/08/22 10:24:25;;;;;;;;;;;;;;;;;;;;;
2022/08/22 10:26:54;;;;;;;;;;;;;;;11.62;100.00;99418.44;6244166;23;20643;-87
2022/08/22 10:29:44;;;;;;;;;;;;;;;;;;;;;
2022/08/22 10:32:41;;;;;;;;;;;;;;;11.68;100.00;99406.66;6245914;23;20347;-88
2022/08/22 10:35:09;;;;;;;;;;;;;;;11.55;100.00;99416.19;6245854;23;20446;-89
2022/08/22 10:37:55;;;;;;;;;;;;;;;11.67;100.00;99407.59;6245277;23;20398;-89
2022/08/22 10:40:20;;;;;;;;;;;;;;;11.59;100.00;99412.44;6245259;23;19915;-86
2022/08/22 10:43:20;;;;;;;;;;;;;;;11.54;100.00;99414.50;6216130;23;19968;-87
2022/08/22 10:45:50;;;;;;;;;;;;;;;11.59;100.00;99413.28;6195817;23;19919;-86
2022/08/22 10:48:47;;;;;;;;;;;;;;;11.50;100.00;99407.63;6245690;23;19995;-87
2022/08/22 10:51:51;;;;;;;;;;;;;;;11.68;100.00;99401.34;6151959;23;19968;-89
2022/08/22 10:54:55;;;;;;;;;;;;;;;11.62;100.00;99399.03;6122696;23;19913;-89
2022/08/22 10:57:28;;;;;;;;;;;;;;;11.50;100.00;99397.84;6094409;23;19944;-88
2022/08/22 11:00:02;;;;;;;;;;;;;;;11.62;100.00;99399.03;6245607;23;20343;-88
2022/08/22 11:02:33;;;;;;;;;;;;;;;11.51;100.00;99390.78;6218338;23;20342;-85
2022/08/22 11:05:19;;;;;;;;;;;;;;;11.69;100.00;99392.44;6245581;23;19923;-88
2022/08/22 11:08:07;;;;;;;;;;;;;;;11.54;100.00;99390.63;6244768;23;19915;-88
2022/08/22 11:10:53;;;;;;;;;;;;;;;11.72;100.00;99386.13;6243970;23;19912;-89
2022/08/22 11:14:16;;;;;;;;;;;;;;;11.63;100.00;99383.03;6218956;23;19916;-88
2022/08/22 11:17:33;;;;;;;;;;;;;;;11.54;100.00;99386.16;6186160;23;19915;-89
2022/08/22 11:20:09;;;;;;;;;;;;;;;11.73;100.00;99382.53;6235325;23;19916;-88
2022/08/22 11:23:01;;;;;;;;;;;;;;;11.59;100.00;99372.66;6244929;23;19916;-88
2022/08/22 11:25:30;;;;;;;;;;;;;;;11.50;100.00;99367.81;6243448;23;19947;-87
2022/08/22 11:27:58;;;;;;;;;;;;;;;11.62;100.00;99375.97;6244367;23;19924;-89
2022/08/22 11:30:50;;;;;;;;;;;;;;;11.52;100.00;99364.16;6244443;23;19916;-88
2022/08/22 11:33:52;;;;;;;;;;;;;;;;;;;;;
2022/08/22 11:39:54;;;;;;;;;;;;;;;;;;;;;
2022/08/22 11:45:50;;;;;;;;;;;;;;;;;;;;;
2022/08/22 11:48:24;;;;;;;;;;;;;;;11.73;100.00;99356.84;6062867;23;20320;-86
2022/08/22 11:51:03;;;;;;;;;;;;;;;11.62;100.00;99359.22;6062651;23;19910;-87
2022/08/22 11:53:37;;;;;;;;;;;;;;;11.77;100.00;99357.50;6062650;23;19917;-85
2022/08/22 11:56:31;;;;;;;;;;;;;;;11.66;100.00;99355.44;6060804;23;20222;-88
2022/08/22 11:59:39;;;;;;;;;;;;;;;11.62;100.00;99353.91;6155974;23;20280;-90
2022/08/22 12:02:17;;;;;;;;;;;;;;;11.70;100.00;99351.69;6062903;23;20585;-89
2022/08/22 12:05:14;;;;;;;;;;;;;;;11.58;100.00;99355.88;6188263;23;19913;-88
2022/08/22 12:07:50;;;;;;;;;;;;;;;11.67;100.00;99349.19;6160366;23;19922;-90
2022/08/22 12:10:38;;;;;;;;;;;;;;;11.57;100.00;99355.97;6187815;23;19914;-88
2022/08/22 12:13:39;;;;;;;;;;;;;;;11.45;100.00;99345.06;6071775;23;19940;-90
2022/08/22 12:16:26;;;;;;;;;;;;;;;11.64;100.00;99349.38;6162952;23;19980;-89
2022/08/22 12:19:13;;;;;;;;;;;;;;;11.49;100.00;99347.53;6062580;23;19917;-88
2022/08/22 12:21:41;;;;;;;;;;;;;;;11.56;100.00;99343.63;6187368;23;19925;-90
2022/08/22 12:24:20;;;;;;;;;;;;;;;11.57;100.00;99340.03;6062553;23;19917;-86
2022/08/22 12:27:04;;;;;;;;;;;;;;;11.52;100.00;99347.38;6061487;23;19920;-86
2022/08/22 12:30:00;;;;;;;;;;;;;;;11.62;100.00;99340.66;6162429;23;19913;-87
2022/08/22 12:32:47;;;;;;;;;;;;;;;;;;;;;
2022/08/22 12:35:29;;;;;;;;;;;;;;;11.65;100.00;99337.81;6063317;23;20280;-87
2022/08/22 12:38:04;;;;;;;;;;;;;;;11.50;100.00;99328.88;6163443;23;19944;-87
2022/08/22 12:40:37;;;;;;;;;;;;;;;11.62;100.00;99338.00;6062783;23;19913;-87
2022/08/22 12:43:09;;;;;;;;;;;;;;;11.57;100.00;99327.63;6109605;23;19915;-87
2022/08/22 12:45:53;;;;;;;;;;;;;;;11.52;100.00;99329.69;6218834;23;19943;-89
2022/08/22 12:48:54;;;;;;;;;;;;;;;;;;;;;
2022/08/22 12:51:20;;;;;;;;;;;;;;;11.55;100.00;99341.91;6246801;23;20002;-88
2022/08/22 12:54:14;;;;;;;;;;;;;;;;;;;;;
2022/08/22 12:57:01;;;;;;;;;;;;;;;;;;;;;
2022/08/22 12:59:49;;;;;;;;;;;;;;;11.63;100.00;99324.63;6246507;23;19990;-87
2022/08/22 13:02:17;;;;;;;;;;;;;;;11.59;100.00;99327.53;6246762;23;20367;-86
2022/08/22 13:05:12;;;;;;;;;;;;;;;;;;;;;
2022/08/22 13:07:40;;;;;;;;;;;;;;;11.64;100.00;99318.38;6236708;23;19982;-90
2022/08/22 13:11:03;;;;;;;;;;;;;;;11.44;100.00;99326.59;6246718;23;20263;-88
2022/08/22 13:13:51;;;;;;;;;;;;;;;11.36;100.00;99319.03;6240302;23;20330;-89
2022/08/22 13:16:20;;;;;;;;;;;;;;;11.51;100.00;99314.69;6245596;23;19911;-89
2022/08/22 13:19:01;;;;;;;;;;;;;;;;;;;;;
2022/08/22 13:21:30;;;;;;;;;;;;;;;11.33;100.00;99310.34;6245682;23;19990;-87
2022/08/22 13:24:11;;;;;;;;;;;;;;;11.42;100.00;99313.41;6245370;23;19942;-87
2022/08/22 13:26:47;;;;;;;;;;;;;;;11.30;100.00;99307.91;6218536;23;19912;-88
2022/08/22 13:29:45;;;;;;;;;;;;;;;;;;;;;
2022/08/22 13:32:22;;;;;;;;;;;;;;;11.33;100.00;99305.94;6246925;23;20002;-87
2022/08/22 13:35:09;;;;;;;;;;;;;;;;;;;;;
2022/08/22 13:37:48;;;;;;;;;;;;;;;11.45;100.00;99304.41;6245415;23;19998;-85
2022/08/22 13:40:45;;;;;;;;;;;;;;;;;;;;;
2022/08/22 13:43:22;;;;;;;;;;;;;;;11.15;100.00;99301.59;6245606;23;19991;-86
2022/08/22 13:45:55;;;;;;;;;;;;;;;11.36;100.00;99296.94;6245651;23;20274;-86
2022/08/22 13:48:33;;;;;;;;;;;;;;;11.27;100.00;99296.50;6219633;23;19912;-86
2022/08/22 13:51:25;;;;;;;;;;;;;;;11.45;100.00;99284.06;6244925;23;19925;-86
2022/08/22 13:53:56;;;;;;;;;;;;;;;11.38;100.00;99285.31;6218717;23;19923;-86
2022/08/22 13:57:00;;;;;;;;;;;;;;;;;;;;;
2022/08/22 13:59:27;;;;;;;;;;;;;;;11.46;100.00;99292.84;6246702;23;19990;-86
2022/08/22 14:02:12;;;;;;;;;;;;;;;;;;;;;
2022/08/22 14:04:55;;;;;;;;;;;;;;;11.46;100.00;99279.59;6245135;23;20006;-86
2022/08/22 14:07:43;;;;;;;;;;;;;;;11.43;100.00;99280.59;6245519;23;19950;-87
2022/08/22 14:10:26;;;;;;;;;;;;;;;11.33;100.00;99282.06;6219030;23;19923;-86
2022/08/22 14:12:55;;;;;;;;;;;;;;;11.49;100.00;99274.13;6244514;23;20312;-85
2022/08/22 14:15:59;;;;;;;;;;;;;;;;;;;;;
2022/08/22 14:18:40;;;;;;;;;;;;;;;11.48;100.00;99272.41;6170573;23;19990;-89
2022/08/22 14:21:25;;;;;;;;;;;;;;;;;;;;;
2022/08/22 14:24:22;;;;;;;;;;;;;;;11.30;100.00;99276.91;6244781;23;19994;-87
2022/08/22 14:27:24;;;;;;;;;;;;;;;;;;;;;
2022/08/22 14:30:10;;;;;;;;;;;;;;;11.39;100.00;99265.81;6147428;23;20011;-88
2022/08/22 14:32:56;;;;;;;;;;;;;;;11.29;100.00;99271.69;6131050;23;20382;-88
2022/08/22 14:35:35;;;;;;;;;;;;;;;;;;;;;
2022/08/22 14:38:12;;;;;;;;;;;;;;;11.34;100.00;99265.19;6203999;23;20407;-88
2022/08/22 14:40:38;;;;;;;;;;;;;;;11.50;100.00;99272.31;6242200;23;20255;-87
2022/08/22 14:43:34;;;;;;;;;;;;;;;;;;;;;
2022/08/22 14:46:13;;;;;;;;;;;;;;;11.40;100.00;99253.41;6093782;23;19919;-87
2022/08/22 14:49:19;;;;;;;;;;;;;;;11.55;100.00;99259.66;6092248;23;19952;-87
2022/08/22 14:52:04;;;;;;;;;;;;;;;11.48;100.00;99255.63;6092806;23;19935;-88
2022/08/22 14:54:37;;;;;;;;;;;;;;;11.42;100.00;99252.38;6092160;23;19929;-87
2022/08/22 14:57:20;;;;;;;;;;;;;;;11.54;100.00;99250.00;6191316;23;19920;-86
2022/08/22 14:59:51;;;;;;;;;;;;;;;11.46;100.00;99250.41;6091943;23;20360;-86
2022/08/22 15:02:38;;;;;;;;;;;;;;;11.58;100.00;99238.25;6092563;23;20000;-86
2022/08/22 15:05:37;;;;;;;;;;;;;;;11.51;100.00;99232.44;6097028;23;19913;-86
2022/08/22 15:08:16;;;;;;;;;;;;;;;;;;;;;
2022/08/22 15:11:00;;;;;;;;;;;;;;;;;;;;;
2022/08/22 15:13:48;;;;;;;;;;;;;;;11.44;100.00;99231.94;6092342;23;19995;-86
2022/08/22 15:16:36;;;;;;;;;;;;;;;11.68;100.00;99223.53;6096511;23;19917;-88
2022/08/22 15:19:31;;;;;;;;;;;;;;;11.57;100.00;99224.13;6115412;23;19917;-87
2022/08/22 15:25:02;;;;;;;;;;;;;;;11.72;100.00;99226.88;6107227;23;19928;-87
2022/08/22 15:27:36;;;;;;;;;;;;;;;11.59;100.00;99224.91;6091337;23;19917;-87
2022/08/22 15:30:04;;;;;;;;;;;;;;;11.78;100.00;99224.72;6092267;23;20284;-88
2022/08/22 15:32:52;;;;;;;;;;;;;;;;;;;;;
2022/08/22 15:35:41;;;;;;;;;;;;;;;11.75;100.00;99222.25;6092335;23;20356;-86
2022/08/22 15:38:32;;;;;;;;;;;;;;;11.68;100.00;99220.00;6095269;23;19919;-87
2022/08/22 15:44:32;;;;;;;;;;;;;;;;;;;;;
2022/08/22 15:47:36;;;;;;;;;;;;;;;;;;;;;
2022/08/22 16:12:26;;;;;;;;;;;;;;;;;;;;;
2022/08/22 16:25:20;;;;;;;;;;;;;;;;;;;;;
2022/08/22 19:15:34;;;;;;;;;;;;;;;12.20;100.00;99280.78;5984099;23;19915;-94
2022/08/22 19:18:40;;;;;;;;;;;;;;;12.34;100.00;99283.50;5949691;24;20229;-95
2022/08/22 19:24:45;;;;;;;;;;;;;;;12.20;100.00;99288.75;6093526;23;20008;-94
2022/08/22 19:27:32;;;;;;;;;;;;;;;12.34;100.00;99293.28;6066796;23;19984;-95
2022/08/22 19:30:27;;;;;;;;;;;;;;;12.23;100.00;99293.91;6093652;23;19949;-94
2022/08/22 19:33:07;;;;;;;;;;;;;;;12.20;100.00;99293.22;6093358;23;19914;-93
2022/08/22 19:35:39;;;;;;;;;;;;;;;12.34;100.00;99294.13;6096330;23;19975;-92
2022/08/22 19:38:39;;;;;;;;;;;;;;;;;;;;;
2022/08/22 19:44:20;;;;;;;;;;;;;;;12.34;100.00;99303.91;6115834;23;19920;-94
2022/08/22 19:49:57;;;;;;;;;;;;;;;12.35;100.00;99318.91;6117825;23;19925;-93
2022/08/22 19:55:30;;;;;;;;;;;;;;;12.34;100.00;99325.16;6217100;22;20002;-94
2022/08/22 19:58:22;;;;;;;;;;;;;;;;;;;;;
2022/08/22 20:04:00;;;;;;;;;;;;;;;;;;;;;
2022/08/22 20:06:35;;;;;;;;;;;;;;;12.04;100.00;99323.31;6275634;22;19998;-92
2022/08/22 20:09:29;;;;;;;;;;;;;;;;;;;;;
2022/08/22 20:12:42;;;;;;;;;;;;;;;;;;;;;
2022/08/22 20:18:56;;;;;;;;;;;;;;;11.98;100.00;99334.25;6306087;22;20384;-93
2022/08/22 20:22:00;;;;;;;;;;;;;;;;;;;;;
2022/08/22 20:24:44;;;;;;;;;;;;;;;12.07;100.00;99343.53;6306535;22;20413;-93
2022/08/22 20:51:23;;;;;;;;;;;;;;;;;;;;;
2022/08/22 20:59:41;;;;;;;;;;;;;;;;;;;;;
2022/08/22 21:12:31;;;;;;;;;;;;;;;;;;;;;
2022/08/22 21:15:35;;;;;;;;;;;;;;;;;;;;;
2022/08/22 21:18:07;;;;;;;;;;;;;;;11.84;100.00;99353.59;6180121;23;20007;-92
2022/08/22 21:21:05;;;;;;;;;;;;;;;;;;;;;
2022/08/22 21:31:47;;;;;;;;;;;;;;;11.85;100.00;99360.59;6254131;22;19932;-92
2022/08/22 21:34:48;;;;;;;;;;;;;;;;;;;;;
2022/08/22 21:56:16;;;;;;;;;;;;;;;11.87;100.00;99363.19;6298804;22;19923;-93
2022/08/22 21:58:52;;;;;;;;;;;;;;;;;;;;;
2022/08/22 22:01:46;;;;;;;;;;;;;;;;;;;;;
2022/08/22 22:04:34;;;;;;;;;;;;;;;11.97;100.00;99365.28;6307980;22;19986;-92
2022/08/22 22:07:26;;;;;;;;;;;;;;;;;;;;;
2022/08/22 22:10:00;;;;;;;;;;;;;;;11.79;100.00;99374.22;6307886;22;19970;-92
2022/08/22 22:15:30;;;;;;;;;;;;;;;;;;;;;
2022/08/22 22:17:56;;;;;;;;;;;;;;;11.77;100.00;99374.28;6307793;22;19997;-92
2022/08/22 22:20:24;;;;;;;;;;;;;;;11.91;100.00;99370.03;6280889;22;19946;-91
2022/08/22 22:22:53;;;;;;;;;;;;;;;11.79;100.00;99380.41;6280079;22;20231;-92
2022/08/22 22:28:27;;;;;;;;;;;;;;;11.89;100.00;99377.25;6292618;22;19914;-90
2022/08/22 22:31:05;;;;;;;;;;;;;;;11.87;100.00;99376.44;6289632;22;19931;-92
2022/08/22 22:33:37;;;;;;;;;;;;;;;12.02;100.00;99375.66;6308577;22;19926;-95
2022/08/22 22:36:17;;;;;;;;;;;;;;;11.91;100.00;99376.19;6281197;22;19965;-93
2022/08/22 22:38:52;;;;;;;;;;;;;;;12.10;100.00;99377.88;6308845;22;19921;-94
2022/08/22 22:41:24;;;;;;;;;;;;;;;11.93;100.00;99384.13;6277779;22;19911;-92
2022/08/22 22:43:52;;;;;;;;;;;;;;;12.02;100.00;99385.44;6280467;22;20326;-92
2022/08/22 22:46:21;;;;;;;;;;;;;;;12.01;100.00;99384.53;6277763;22;19925;-93
2022/08/22 22:48:46;;;;;;;;;;;;;;;11.89;100.00;99385.22;6280591;22;19919;-91
2022/08/22 22:51:15;;;;;;;;;;;;;;;12.06;100.00;99393.13;6307953;22;19946;-91
2022/08/22 22:53:47;;;;;;;;;;;;;;;11.93;100.00;99394.72;6278567;22;20234;-93
2022/08/22 22:56:19;;;;;;;;;;;;;;;12.11;100.00;99383.09;6277451;22;20330;-94
2022/08/22 22:58:45;;;;;;;;;;;;;;;12.02;100.00;99386.28;6279668;22;19919;-92
2022/08/22 23:01:16;;;;;;;;;;;;;;;12.13;100.00;99388.34;6278609;22;20384;-94
2022/08/22 23:06:21;;;;;;;;;;;;;;;12.06;100.00;99379.84;6290782;22;19926;-94
2022/08/22 23:11:44;;;;;;;;;;;;;;;11.95;100.00;99398.16;6307588;22;20258;-93
2022/08/22 23:14:12;;;;;;;;;;;;;;;12.15;100.00;99391.75;6280116;22;19961;-93
2022/08/22 23:17:03;;;;;;;;;;;;;;;11.96;100.00;99395.41;6308517;22;19946;-94
2022/08/22 23:19:29;;;;;;;;;;;;;;;12.17;100.00;99404.03;6266183;22;19933;-93
2022/08/22 23:21:58;;;;;;;;;;;;;;;11.90;100.00;99401.06;6280593;22;19911;-94
2022/08/22 23:24:43;;;;;;;;;;;;;;;;;;;;;
2022/08/22 23:27:09;;;;;;;;;;;;;;;12.06;100.00;99403.75;6307685;22;20022;-94
2022/08/22 23:29:39;;;;;;;;;;;;;;;11.99;100.00;99408.53;6280160;22;19942;-93
2022/08/22 23:35:03;;;;;;;;;;;;;;;;;;;;;
2022/08/22 23:37:51;;;;;;;;;;;;;;;12.24;100.00;99412.50;6306911;22;19990;-93
2022/08/22 23:40:35;;;;;;;;;;;;;;;12.08;100.00;99409.84;6280773;22;19915;-91
2022/08/22 23:43:13;;;;;;;;;;;;;;;12.06;100.00;99408.19;6274704;22;20270;-94
2022/08/22 23:45:41;;;;;;;;;;;;;;;12.12;100.00;99416.66;6278985;22;19941;-91
2022/08/22 23:54:19;;;;;;;;;;;;;;;12.09;100.00;99411.53;6276033;22;19986;-90
2022/08/22 23:57:01;;;;;;;;;;;;;;;12.05;100.00;99407.34;6230855;22;19915;-91
2022/08/22 23:59:57;;;;;;;;;;;;;;;12.13;100.00;99413.09;6245477;22;19922;-91
